createdAt,value
2018-10-16T00:01:05.178Z,101569.18
2018-10-16T00:03:34.238Z,101569.66
2018-10-16T00:06:03.355Z,101570.12
2018-10-16T00:08:32.465Z,101568.77
2018-10-16T00:11:01.567Z,101564.83
2018-10-16T00:13:30.605Z,101570.12
2018-10-16T00:15:59.651Z,101568.87
2018-10-16T00:18:28.755Z,101572.05
2018-10-16T00:20:57.812Z,101571.16
2018-10-16T00:23:26.851Z,101579.25
2018-10-16T00:25:55.943Z,101580.59
2018-10-16T00:28:26.043Z,101581.95
2018-10-16T00:30:55.112Z,101581.08
2018-10-16T00:33:24.152Z,101584.64
2018-10-16T00:35:53.651Z,101589.58
2018-10-16T00:38:22.777Z,101599.02
2018-10-16T00:40:51.836Z,101603.44
2018-10-16T00:43:20.945Z,101606.21
2018-10-16T00:45:50.027Z,101599.95
2018-10-16T00:48:19.291Z,101603.52
2018-10-16T00:50:48.452Z,101603.52
2018-10-16T00:53:17.724Z,101596.77
2018-10-16T00:55:46.815Z,101606.21
2018-10-16T00:58:15.919Z,101604.48
2018-10-16T01:00:44.959Z,101610.84
2018-10-16T01:03:14.015Z,101617.11
2018-10-16T01:05:43.110Z,101616.69
2018-10-16T01:08:12.156Z,101615.34
2018-10-16T01:10:41.210Z,101611.41
2018-10-16T01:13:10.258Z,101614.96
2018-10-16T01:15:39.384Z,101606.01
2018-10-16T01:18:08.432Z,101609.08
2018-10-16T01:20:37.562Z,101608.59
2018-10-16T01:23:06.686Z,101606.39
2018-10-16T01:25:35.722Z,101609.08
2018-10-16T01:28:04.873Z,101607.84
2018-10-16T01:30:33.968Z,101607.84
2018-10-16T01:33:03.019Z,101605.59
2018-10-16T01:35:32.139Z,101603.80
2018-10-16T01:38:01.457Z,101614.09
2018-10-16T01:40:30.543Z,101614.96
2018-10-16T01:42:59.605Z,101618.62
2018-10-16T01:45:28.753Z,101622.19
2018-10-16T01:47:57.777Z,101613.61
2018-10-16T01:50:26.849Z,101618.14
2018-10-16T01:52:55.976Z,101609.64
2018-10-16T01:55:25.058Z,101611.47
2018-10-16T01:57:54.103Z,101611.95
2018-10-16T02:00:23.160Z,101616.97
2018-10-16T02:02:52.208Z,101620.53
2018-10-16T02:05:22.720Z,101610.30
2018-10-16T02:07:51.767Z,101618.31
2018-10-16T02:10:20.822Z,101617.91
2018-10-16T02:12:49.873Z,101624.64
2018-10-16T02:15:18.912Z,101622.36
2018-10-16T02:17:47.967Z,101620.22
2018-10-16T02:20:16.999Z,101618.88
2018-10-16T02:22:46.098Z,101618.88
2018-10-16T02:25:15.131Z,101620.22
2018-10-16T02:27:44.176Z,101615.28
2018-10-16T02:30:13.217Z,101621.56
2018-10-16T02:32:42.319Z,101628.38
2018-10-16T02:35:12.155Z,101629.73
2018-10-16T02:37:41.252Z,101629.24
2018-10-16T02:40:10.930Z,101625.20
2018-10-16T02:42:40.567Z,101625.20
2018-10-16T02:45:10.697Z,101630.11
2018-10-16T02:47:40.163Z,101631.45
2018-10-16T02:50:10.334Z,101629.24
2018-10-16T02:52:39.687Z,101628.45
2018-10-16T02:55:09.847Z,101622.12
2018-10-16T02:57:38.895Z,101626.16
2018-10-16T03:00:08.133Z,101623.05
2018-10-16T03:02:37.291Z,101628.38
2018-10-16T03:05:06.383Z,101625.30
2018-10-16T03:07:35.483Z,101628.38
2018-10-16T03:10:04.564Z,101626.55
2018-10-16T03:12:33.607Z,101629.24
2018-10-16T03:15:02.715Z,101631.94
2018-10-16T03:17:31.767Z,101635.05
2018-10-16T03:20:00.813Z,101638.67
2018-10-16T03:22:29.932Z,101643.59
2018-10-16T03:24:58.987Z,101644.07
2018-10-16T03:27:28.119Z,101650.27
2018-10-16T03:29:57.231Z,101645.83
2018-10-16T03:32:26.291Z,101651.23
2018-10-16T03:34:55.331Z,101652.58
2018-10-16T03:37:24.411Z,101650.33
2018-10-16T03:39:53.495Z,101644.94
2018-10-16T03:42:22.539Z,101652.16
2018-10-16T03:44:51.743Z,101655.34
2018-10-16T03:47:20.820Z,101655.72
2018-10-16T03:49:49.865Z,101654.86
2018-10-16T03:52:18.896Z,101652.16
2018-10-16T03:54:47.942Z,101649.95
2018-10-16T03:57:17.091Z,101650.81
2018-10-16T03:59:46.448Z,101645.97
2018-10-16T04:02:15.777Z,101648.59
2018-10-16T04:04:44.863Z,101649.08
2018-10-16T04:07:13.903Z,101645.11
2018-10-16T04:09:43.025Z,101650.50
2018-10-16T04:12:12.084Z,101643.86
2018-10-16T04:14:41.044Z,101647.91
2018-10-16T04:17:10.002Z,101642.03
2018-10-16T04:19:38.976Z,101645.21
2018-10-16T04:22:08.024Z,101642.97
2018-10-16T04:24:36.993Z,101644.31
2018-10-16T04:27:06.139Z,101648.36
2018-10-16T04:29:35.103Z,101647.02
2018-10-16T04:32:04.070Z,101648.45
2018-10-16T04:34:33.128Z,101648.94
2018-10-16T04:37:02.411Z,101650.19
2018-10-16T04:39:31.447Z,101645.83
2018-10-16T04:42:00.483Z,101650.36
2018-10-16T04:44:29.466Z,101649.08
2018-10-16T04:46:58.566Z,101649.56
2018-10-16T04:49:27.627Z,101651.33
2018-10-16T04:52:02.078Z,101649.98
2018-10-16T04:54:31.204Z,101650.91
2018-10-16T04:57:00.254Z,101652.36
2018-10-16T04:59:29.345Z,101647.35
2018-10-16T05:01:58.388Z,101659.48
2018-10-16T05:04:27.427Z,101658.62
2018-10-16T05:06:56.382Z,101655.92
2018-10-16T05:09:25.434Z,101652.81
2018-10-16T05:11:55.563Z,101654.16
2018-10-16T05:14:24.542Z,101661.80
2018-10-16T05:16:53.689Z,101656.95
2018-10-16T05:19:22.865Z,101662.73
2018-10-16T05:21:51.974Z,101662.73
2018-10-16T05:24:21.064Z,101660.90
2018-10-16T05:26:50.315Z,101654.27
2018-10-16T05:29:19.356Z,101658.20
2018-10-16T05:31:48.422Z,101661.00
2018-10-16T05:34:17.539Z,101657.83
2018-10-16T05:36:46.643Z,101656.09
2018-10-16T05:39:15.772Z,101663.21
2018-10-16T05:41:45.041Z,101654.33
2018-10-16T05:44:14.122Z,101662.35
2018-10-16T05:46:43.192Z,101662.83
2018-10-16T05:49:12.247Z,101670.02
2018-10-16T05:51:41.311Z,101669.57
2018-10-16T05:54:10.709Z,101670.50
2018-10-16T05:56:40.020Z,101678.52
2018-10-16T05:59:09.295Z,101680.36
2018-10-16T06:01:38.330Z,101688.44
2018-10-16T06:04:07.425Z,101687.16
2018-10-16T06:06:36.528Z,101687.16
2018-10-16T06:09:07.336Z,101690.23
2018-10-16T06:11:36.480Z,101692.55
2018-10-16T06:14:05.567Z,101698.74
2018-10-16T06:16:34.736Z,101696.05
2018-10-16T06:19:03.815Z,101694.28
2018-10-16T06:21:32.823Z,101700.57
2018-10-16T06:24:01.863Z,101703.81
2018-10-16T06:26:31.014Z,101701.98
2018-10-16T06:29:00.183Z,101707.31
2018-10-16T06:31:29.328Z,101711.80
2018-10-16T06:33:58.663Z,101707.45
2018-10-16T06:36:27.835Z,101709.27
2018-10-16T06:38:56.863Z,101711.42
2018-10-16T06:41:26.027Z,101714.60
2018-10-16T06:43:55.294Z,101711.97
2018-10-16T06:46:24.569Z,101715.53
2018-10-16T06:48:53.971Z,101717.78
2018-10-16T06:51:24.091Z,101715.53
2018-10-16T06:53:53.075Z,101718.64
2018-10-16T06:56:22.152Z,101717.78
2018-10-16T06:58:51.228Z,101718.70
2018-10-16T07:01:20.304Z,101716.43
2018-10-16T07:03:49.364Z,101718.16
2018-10-16T07:06:18.516Z,101718.09
2018-10-16T07:08:47.700Z,101718.64
2018-10-16T07:11:16.780Z,101718.64
2018-10-16T07:13:45.918Z,101726.02
2018-10-16T07:16:15.227Z,101725.84
2018-10-16T07:18:44.433Z,101720.84
2018-10-16T07:21:13.588Z,101720.70
2018-10-16T07:23:42.788Z,101721.78
2018-10-16T07:26:12.087Z,101724.89
2018-10-16T07:28:41.210Z,101734.64
2018-10-16T07:31:10.215Z,101741.22
2018-10-16T07:33:39.206Z,101734.00
2018-10-16T07:36:08.278Z,101732.96
2018-10-16T07:38:37.375Z,101735.52
2018-10-16T07:41:06.426Z,101735.03
2018-10-16T07:43:35.448Z,101734.48
2018-10-16T07:46:04.639Z,101737.11
2018-10-16T07:48:33.720Z,101740.98
2018-10-16T07:51:03.004Z,101740.05
2018-10-16T07:53:32.065Z,101743.93
2018-10-16T07:56:01.099Z,101746.56
2018-10-16T07:58:30.199Z,101745.21
2018-10-16T08:00:59.517Z,101751.41
2018-10-16T08:03:28.533Z,101746.00
2018-10-16T08:05:57.651Z,101749.40
2018-10-16T08:08:26.774Z,101750.37
2018-10-16T08:10:55.932Z,101750.27
2018-10-16T08:13:25.080Z,101759.70
2018-10-16T08:15:54.144Z,101759.16
2018-10-16T08:18:23.240Z,101757.73
2018-10-16T08:20:52.327Z,101753.20
2018-10-16T08:23:21.317Z,101756.28
2018-10-16T08:25:50.371Z,101754.06
2018-10-16T08:28:19.392Z,101755.73
2018-10-16T08:30:48.590Z,101759.61
2018-10-16T08:33:17.663Z,101766.28
2018-10-16T08:35:46.786Z,101766.28
2018-10-16T08:39:21.823Z,101759.36
2018-10-16T08:44:10.047Z,101766.84
2018-10-16T08:46:50.436Z,101764.03
2018-10-16T08:49:30.889Z,101767.88
2018-10-16T08:52:00.258Z,101765.24
2018-10-16T08:54:29.318Z,101769.67
2018-10-16T08:56:58.716Z,101773.27
2018-10-16T08:59:28.000Z,101778.02
2018-10-16T09:01:57.053Z,101777.35
2018-10-16T09:04:26.105Z,101780.64
2018-10-16T09:06:55.222Z,101779.36
2018-10-16T09:09:24.451Z,101780.05
2018-10-16T09:11:53.799Z,101782.75
2018-10-16T09:14:22.826Z,101778.70
2018-10-16T09:16:52.108Z,101776.42
2018-10-16T09:19:21.095Z,101782.75
2018-10-16T09:21:50.172Z,101783.72
2018-10-16T09:24:19.255Z,101786.03
2018-10-16T09:26:48.268Z,101786.80
2018-10-16T09:29:17.390Z,101787.59
2018-10-16T09:31:46.438Z,101779.11
2018-10-16T09:34:15.485Z,101784.09
2018-10-16T09:36:44.572Z,101787.22
2018-10-16T09:39:13.630Z,101782.20
2018-10-16T09:41:42.684Z,101783.38
2018-10-16T09:44:11.770Z,101781.16
2018-10-16T09:46:40.827Z,101779.73
2018-10-16T09:49:09.892Z,101784.65
2018-10-16T09:51:39.012Z,101786.56
2018-10-16T09:54:08.133Z,101783.79
2018-10-16T09:56:37.209Z,101784.58
2018-10-16T09:59:06.314Z,101784.48
2018-10-16T10:01:40.877Z,101781.33
2018-10-16T10:04:09.958Z,101789.50
2018-10-16T10:06:38.984Z,101791.40
2018-10-16T10:09:11.258Z,101793.23
2018-10-16T10:11:40.556Z,101793.92
2018-10-16T10:14:10.033Z,101787.11
2018-10-16T10:16:39.478Z,101793.06
2018-10-16T10:19:08.612Z,101787.28
2018-10-16T10:21:37.903Z,101792.67
2018-10-16T10:24:06.996Z,101787.59
2018-10-16T10:26:36.302Z,101789.33
2018-10-16T10:29:05.600Z,101793.68
2018-10-16T10:31:34.733Z,101795.52
2018-10-16T10:34:03.897Z,101794.09
2018-10-16T10:36:32.975Z,101800.84
2018-10-16T10:39:02.114Z,101793.99
2018-10-16T10:41:31.176Z,101789.94
2018-10-16T10:44:00.275Z,101798.45
2018-10-16T10:46:29.473Z,101795.89
2018-10-16T10:48:58.572Z,101792.81
2018-10-16T10:51:27.944Z,101793.37
2018-10-16T10:53:57.132Z,101791.16
2018-10-16T10:56:26.210Z,101788.84
2018-10-16T10:58:55.355Z,101790.29
2018-10-16T11:01:24.518Z,101794.72
2018-10-16T11:03:53.524Z,101794.34
2018-10-16T11:06:22.597Z,101792.50
2018-10-16T11:08:51.702Z,101791.71
2018-10-16T11:11:21.821Z,101793.48
2018-10-16T11:13:50.953Z,101793.48
2018-10-16T11:16:20.051Z,101793.48
2018-10-16T11:18:49.159Z,101782.27
2018-10-16T11:21:18.324Z,101789.02
2018-10-16T11:23:47.375Z,101793.48
2018-10-16T11:26:16.445Z,101788.63
2018-10-16T11:28:45.524Z,101790.77
2018-10-16T11:31:14.571Z,101791.33
2018-10-16T11:33:43.657Z,101789.87
2018-10-16T11:36:12.611Z,101794.34
2018-10-16T11:38:41.716Z,101784.09
2018-10-16T11:41:10.819Z,101782.67
2018-10-16T11:43:39.903Z,101787.11
2018-10-16T11:46:08.971Z,101787.48
2018-10-16T11:48:38.083Z,101786.55
2018-10-16T11:51:07.163Z,101783.06
2018-10-16T11:53:36.241Z,101785.75
2018-10-16T11:56:05.495Z,101787.18
2018-10-16T11:58:34.803Z,101792.89
2018-10-16T12:01:03.932Z,101786.31
2018-10-16T12:03:32.984Z,101787.59
2018-10-16T12:06:02.123Z,101792.50
2018-10-16T12:08:31.399Z,101790.29
2018-10-16T12:11:00.465Z,101783.55
2018-10-16T12:13:29.964Z,101785.38
2018-10-16T12:15:59.207Z,101786.31
2018-10-16T12:18:32.129Z,101789.87
2018-10-16T12:21:05.162Z,101786.24
2018-10-16T12:23:34.438Z,101781.22
2018-10-16T12:26:03.674Z,101782.58
2018-10-16T12:28:32.860Z,101779.08
2018-10-16T12:31:01.970Z,101774.95
2018-10-16T12:33:31.189Z,101778.14
2018-10-16T12:36:00.355Z,101774.16
2018-10-16T12:38:29.646Z,101778.52
2018-10-16T12:40:58.869Z,101780.36
2018-10-16T12:43:28.314Z,101777.17
2018-10-16T12:45:58.110Z,101774.58
2018-10-16T12:48:28.040Z,101770.53
2018-10-16T12:50:57.405Z,101777.10
2018-10-16T12:53:26.732Z,101767.10
2018-10-16T12:55:55.771Z,101769.80
2018-10-16T12:58:25.057Z,101768.52
2018-10-16T13:00:54.135Z,101768.45
2018-10-16T13:03:23.246Z,101772.50
2018-10-16T13:05:52.458Z,101770.56
2018-10-16T13:08:21.556Z,101766.52
2018-10-16T13:10:50.673Z,101773.19
2018-10-16T13:13:19.717Z,101767.86
2018-10-16T13:15:48.851Z,101765.16
2018-10-16T13:18:17.935Z,101767.00
2018-10-16T13:20:47.012Z,101765.16
2018-10-16T13:23:16.165Z,101760.73
2018-10-16T13:25:45.416Z,101757.55
2018-10-16T13:28:14.479Z,101757.96
2018-10-16T13:30:43.639Z,101753.02
2018-10-16T13:33:12.688Z,101750.80
2018-10-16T13:35:41.832Z,101754.47
2018-10-16T13:38:10.960Z,101754.36
2018-10-16T13:40:40.222Z,101754.36
2018-10-16T13:43:09.306Z,101755.71
2018-10-16T13:45:38.417Z,101755.33
2018-10-16T13:48:07.508Z,101758.83
2018-10-16T13:50:36.616Z,101765.09
2018-10-16T13:53:05.863Z,101758.41
2018-10-16T13:55:34.927Z,101762.88
2018-10-16T13:58:04.393Z,101762.39
2018-10-16T14:00:33.595Z,101765.02
2018-10-16T14:03:02.656Z,101754.29
2018-10-16T14:05:31.809Z,101750.73
2018-10-16T14:08:00.893Z,101752.94
2018-10-16T14:10:30.119Z,101753.80
2018-10-16T14:12:59.191Z,101751.11
2018-10-16T14:15:28.237Z,101752.88
2018-10-16T14:17:57.322Z,101748.89
2018-10-16T14:20:26.558Z,101748.52
2018-10-16T14:22:55.709Z,101748.03
2018-10-16T14:25:24.991Z,101744.47
2018-10-16T14:27:54.100Z,101747.92
2018-10-16T14:30:23.363Z,101745.70
2018-10-16T14:32:52.457Z,101747.06
2018-10-16T14:35:21.548Z,101742.94
2018-10-16T14:37:50.655Z,101745.95
2018-10-16T14:40:19.973Z,101739.19
2018-10-16T14:42:49.417Z,101740.92
2018-10-16T14:45:18.510Z,101738.70
2018-10-16T14:47:47.595Z,101740.92
2018-10-16T14:50:16.867Z,101744.59
2018-10-16T14:52:45.996Z,101740.55
2018-10-16T14:55:15.269Z,101744.97
2018-10-16T14:57:44.464Z,101739.09
2018-10-16T15:00:14.003Z,101734.59
2018-10-16T15:02:43.145Z,101733.80
2018-10-16T15:05:12.707Z,101734.73
2018-10-16T15:07:42.163Z,101731.09
2018-10-16T15:10:11.358Z,101730.61
2018-10-16T15:12:40.667Z,101732.27
2018-10-16T15:15:10.057Z,101727.09
2018-10-16T15:17:39.156Z,101722.48
2018-10-16T15:20:09.771Z,101725.57
2018-10-16T15:22:38.947Z,101724.47
2018-10-16T15:25:09.175Z,101730.98
2018-10-16T15:27:38.326Z,101728.95
2018-10-16T15:30:08.632Z,101729.51
2018-10-16T15:32:37.762Z,101729.62
2018-10-16T15:35:07.977Z,101728.83
2018-10-16T15:37:37.211Z,101733.81
2018-10-16T15:40:07.564Z,101733.91
2018-10-16T15:42:37.012Z,101730.42
2018-10-16T15:45:07.716Z,101726.45
2018-10-16T15:47:36.781Z,101727.42
2018-10-16T15:50:06.934Z,101726.14
2018-10-16T15:52:36.119Z,101731.16
2018-10-16T15:55:05.855Z,101730.29
2018-10-16T15:57:34.950Z,101727.28
2018-10-16T16:00:04.386Z,101729.02
2018-10-16T16:02:33.723Z,101723.38
2018-10-16T16:05:02.928Z,101726.56
2018-10-16T16:07:32.029Z,101727.42
2018-10-16T16:10:01.207Z,101727.05
2018-10-16T16:12:30.628Z,101731.65
2018-10-16T16:14:59.927Z,101730.78
2018-10-16T16:17:28.995Z,101732.62
2018-10-16T16:19:58.054Z,101727.77
2018-10-16T16:22:27.121Z,101729.99
2018-10-16T16:24:56.352Z,101736.84
2018-10-16T16:27:25.447Z,101731.03
2018-10-16T16:29:54.566Z,101730.16
2018-10-16T16:32:23.788Z,101735.18
2018-10-16T16:34:53.132Z,101742.00
2018-10-16T16:37:22.351Z,101741.13
2018-10-16T16:39:51.439Z,101738.89
2018-10-16T16:42:20.727Z,101740.23
2018-10-16T16:44:49.831Z,101737.16
2018-10-16T16:47:18.919Z,101737.23
2018-10-16T16:49:47.986Z,101738.58
2018-10-16T16:52:17.106Z,101742.23
2018-10-16T16:54:46.255Z,101744.56
2018-10-16T16:57:15.391Z,101750.41
2018-10-16T16:59:44.431Z,101748.19
2018-10-16T17:02:13.533Z,101750.51
2018-10-16T17:04:42.884Z,101747.88
2018-10-16T17:07:11.992Z,101749.64
2018-10-16T17:09:41.277Z,101748.74
2018-10-16T17:12:10.337Z,101754.24
2018-10-16T17:14:39.455Z,101753.38
2018-10-16T17:17:08.519Z,101756.08
2018-10-16T17:19:37.574Z,101756.45
2018-10-16T17:22:06.733Z,101757.49
2018-10-16T17:24:35.956Z,101749.40
2018-10-16T17:27:05.223Z,101753.52
2018-10-16T17:29:34.279Z,101750.81
2018-10-16T17:32:03.347Z,101747.73
2018-10-16T17:34:37.899Z,101752.16
2018-10-16T17:37:12.388Z,101747.73
2018-10-16T17:39:41.449Z,101750.44
2018-10-16T17:42:10.746Z,101749.09
2018-10-16T17:44:39.837Z,101747.81
2018-10-16T17:47:08.940Z,101749.95
2018-10-16T17:49:38.083Z,101750.27
2018-10-16T17:52:07.174Z,101750.99
2018-10-16T17:54:36.296Z,101755.73
2018-10-16T17:57:06.283Z,101754.31
2018-10-16T17:59:35.571Z,101754.77
2018-10-16T18:02:04.787Z,101753.83
2018-10-16T18:04:33.937Z,101756.91
2018-10-16T18:07:03.195Z,101755.87
2018-10-16T18:09:32.263Z,101750.09
2018-10-16T18:12:01.356Z,101757.63
2018-10-16T18:14:30.479Z,101760.33
2018-10-16T18:16:59.567Z,101753.48
2018-10-16T18:19:28.692Z,101760.71
2018-10-16T18:21:57.797Z,101757.53
2018-10-16T18:24:26.882Z,101762.79
2018-10-16T18:26:55.940Z,101748.87
2018-10-16T18:29:24.995Z,101754.69
2018-10-16T18:31:54.067Z,101753.34
2018-10-16T18:34:23.119Z,101755.94
2018-10-16T18:36:52.295Z,101755.00
2018-10-16T18:39:21.450Z,101756.80
2018-10-16T18:41:50.740Z,101764.89
2018-10-16T18:44:19.862Z,101768.08
2018-10-16T18:46:49.127Z,101770.23
2018-10-16T18:49:18.187Z,101771.58
2018-10-16T18:51:47.242Z,101776.00
2018-10-16T18:54:16.617Z,101774.97
2018-10-16T18:56:45.929Z,101773.06
2018-10-16T18:59:15.021Z,101774.41
2018-10-16T19:01:44.127Z,101776.63
2018-10-16T19:04:13.319Z,101772.58
2018-10-16T19:06:42.536Z,101773.55
2018-10-16T19:09:12.845Z,101777.11
2018-10-16T19:11:42.823Z,101766.80
2018-10-16T19:14:11.957Z,101765.37
2018-10-16T19:16:41.227Z,101764.48
2018-10-16T19:20:40.120Z,101758.32
2018-10-16T19:23:09.309Z,101763.13
2018-10-16T19:25:38.546Z,101764.58
2018-10-16T19:28:07.971Z,101764.27
2018-10-16T19:30:37.073Z,101761.02
2018-10-16T19:33:06.176Z,101757.42
2018-10-16T19:35:35.405Z,101760.43
2018-10-16T19:38:04.551Z,101760.36
2018-10-16T19:40:33.614Z,101760.36
2018-10-16T19:43:03.178Z,101758.14
2018-10-16T19:45:32.310Z,101763.92
2018-10-16T19:48:01.627Z,101759.98
2018-10-16T19:50:30.745Z,101763.06
2018-10-16T19:52:59.826Z,101763.55
2018-10-16T19:55:28.939Z,101760.36
2018-10-16T19:57:58.039Z,101757.28
2018-10-16T20:00:27.107Z,101755.52
2018-10-16T20:02:56.184Z,101749.25
2018-10-16T20:05:25.631Z,101746.56
2018-10-16T20:07:54.831Z,101749.63
2018-10-16T20:10:23.889Z,101748.28
2018-10-16T20:12:53.114Z,101748.22
2018-10-16T20:15:22.201Z,101749.08
2018-10-16T20:17:51.490Z,101750.43
2018-10-16T20:20:20.622Z,101753.61
2018-10-16T20:22:49.908Z,101756.80
2018-10-16T20:25:19.042Z,101749.63
2018-10-16T20:27:48.260Z,101752.75
2018-10-16T20:30:17.310Z,101756.38
2018-10-16T20:32:47.445Z,101745.13
2018-10-16T20:35:16.464Z,101739.73
2018-10-16T20:37:45.608Z,101740.60
2018-10-16T20:40:14.736Z,101729.81
2018-10-16T20:42:43.867Z,101727.97
2018-10-16T20:45:12.930Z,101727.11
2018-10-16T20:47:42.043Z,101727.00
2018-10-16T20:50:11.315Z,101725.20
2018-10-16T20:52:40.400Z,101725.58
2018-10-16T20:55:14.995Z,101733.12
2018-10-16T20:57:49.559Z,101734.55
2018-10-16T21:00:18.659Z,101735.44
2018-10-16T21:02:47.707Z,101736.30
2018-10-16T21:05:16.962Z,101736.79
2018-10-16T21:07:46.134Z,101733.67
2018-10-16T21:10:15.171Z,101736.38
2018-10-16T21:12:44.307Z,101729.25
2018-10-16T21:15:13.383Z,101732.89
2018-10-16T21:17:42.433Z,101733.45
2018-10-16T21:20:11.493Z,101738.84
2018-10-16T21:22:40.662Z,101729.39
2018-10-16T21:25:10.262Z,101735.69
2018-10-16T21:27:41.240Z,101741.16
2018-10-16T21:30:10.338Z,101732.75
2018-10-16T21:32:39.422Z,101732.83
2018-10-16T21:35:08.572Z,101735.52
2018-10-16T21:37:37.884Z,101728.87
2018-10-16T21:40:07.496Z,101726.67
2018-10-16T21:42:36.530Z,101725.88
2018-10-16T21:45:06.332Z,101735.88
2018-10-16T21:47:35.444Z,101736.36
2018-10-16T21:50:04.672Z,101738.64
2018-10-16T21:52:33.723Z,101731.03
2018-10-16T21:55:02.803Z,101733.34
2018-10-16T21:57:32.045Z,101735.18
2018-10-16T22:00:01.279Z,101730.34
2018-10-16T22:02:35.723Z,101731.69
2018-10-16T22:05:04.881Z,101736.67
2018-10-16T22:07:34.135Z,101737.08
2018-10-16T22:10:03.222Z,101733.48
2018-10-16T22:12:32.346Z,101735.42
2018-10-16T22:15:01.486Z,101731.76
2018-10-16T22:17:30.775Z,101732.31
2018-10-16T22:19:59.826Z,101731.45
2018-10-16T22:22:28.964Z,101724.77
2018-10-16T22:24:58.066Z,101729.23
2018-10-16T22:27:27.311Z,101727.47
2018-10-16T22:29:56.452Z,101730.27
2018-10-16T22:32:25.522Z,101734.31
2018-10-16T22:34:54.591Z,101730.89
2018-10-16T22:37:23.968Z,101728.51
2018-10-16T22:39:53.115Z,101731.31
2018-10-16T22:42:22.155Z,101732.17
2018-10-16T22:44:51.254Z,101726.54
2018-10-16T22:47:20.341Z,101736.29
2018-10-16T22:49:49.414Z,101734.18
2018-10-16T22:52:18.503Z,101733.70
2018-10-16T22:54:47.578Z,101730.13
2018-10-16T22:57:16.626Z,101735.11
2018-10-16T22:59:45.770Z,101739.95
2018-10-16T23:02:14.999Z,101739.27
2018-10-16T23:04:44.118Z,101740.12
2018-10-16T23:07:13.267Z,101741.96
2018-10-16T23:09:42.463Z,101746.45
2018-10-16T23:12:11.515Z,101746.94
2018-10-16T23:14:40.567Z,101746.08
2018-10-16T23:17:10.089Z,101756.87
2018-10-16T23:19:39.390Z,101750.67
2018-10-16T23:22:08.444Z,101745.28
2018-10-16T23:24:37.523Z,101746.70
2018-10-16T23:27:06.587Z,101753.38
2018-10-16T23:29:35.729Z,101756.55
2018-10-16T23:32:04.819Z,101752.02
2018-10-16T23:34:33.875Z,101751.54
2018-10-16T23:37:03.193Z,101746.63
2018-10-16T23:39:32.380Z,101745.77
2018-10-16T23:42:01.524Z,101746.70
2018-10-16T23:44:30.645Z,101748.05
2018-10-16T23:46:59.733Z,101749.39
2018-10-16T23:49:28.949Z,101752.20
2018-10-16T23:51:58.003Z,101752.20
2018-10-16T23:54:27.157Z,101756.72
2018-10-16T23:56:56.325Z,101753.06
2018-10-16T23:59:25.389Z,101757.59
